Mashpee, Massachusetts
Current Conditions -  °F | °C
As of 6:15 PM on Wednesday 22 Oct 2014 (Local Time) from KFMH Reporting Station
Haze Haze  
Wind Chill: 59°   Ceiling: 300
Heat Index: 59°   Visibility: 1.7mi
Dew Point: 57°   Wind: 20mph
Humidity: 94%   Direction: 50°NE
Pressure: 29.74"   Gusts: 26mph
Location:  41.57°N, 70.48°W
Report Text: KFMH 222215Z AUTO 05017G23KT 1 3/4SM BR OVC003 15/14 A2974 RMK AO2
Loading
Personal Weather Stations






























Interactive Weather Map
Tropical Storm Tracking
New forecast layout! Learn more

10-Day Weather Forecast

Advertisements
Track Severe Weather on mobile